Time;durP1;ratioP1;P1;durP2;ratioP2;P2;SDS_P1;SDS_P2;PMS_P1;PMS_P2;Temp;Humidity;BMP_temperature;BMP_pressure;BME280_temperature;BME280_humidity;BME280_pressure;Samples;Min_cycle;Max_cycle;Signal;HPM_P1;HPM_P2
2022/02/03 00:01:25;;;;;;;;;;;;;;;4.79;59.45;99693.12;4499598;31;19979;-84
2022/02/03 00:06:24;;;;;;;;;;;;;;;4.81;59.45;99716.31;4499701;31;20005;-83
2022/02/03 00:16:43;;;;;;;;;;;;;;;4.62;59.44;99721.63;4499836;31;19991;-84
2022/02/03 00:25:08;;;;;;;;;;;;;;;4.34;59.42;99753.62;4482319;32;20416;-84
2022/02/03 00:27:55;;;;;;;;;;;;;;;;;;;;;
2022/02/03 00:30:16;;;;;;;;;;;;;;;4.48;59.42;99740.63;4500804;31;19988;-85
2022/02/03 00:48:42;;;;;;;;;;;;;;;4.30;59.42;99796.59;4499417;31;20032;-85
2022/02/03 00:51:07;;;;;;;;;;;;;;;4.11;59.41;99815.59;4500631;31;20745;-84
2022/02/03 00:53:33;;;;;;;;;;;;;;;4.34;59.41;99825.78;4498992;31;20312;-85
2022/02/03 00:56:00;;;;;;;;;;;;;;;4.51;59.43;99821.41;4499339;31;20040;-84
2022/02/03 00:58:25;;;;;;;;;;;;;;;4.44;59.43;99819.69;4499542;31;19987;-84
2022/02/03 01:00:51;;;;;;;;;;;;;;;4.44;59.43;99832.59;4486091;31;20036;-85
2022/02/03 01:03:16;;;;;;;;;;;;;;;4.53;59.43;99836.84;4499399;31;20702;-86
2022/02/03 01:05:43;;;;;;;;;;;;;;;4.32;59.41;99842.97;4500005;31;21985;-84
2022/02/03 01:08:16;;;;;;;;;;;;;;;4.40;59.42;99864.41;4499251;31;20383;-86
2022/02/03 01:10:50;;;;;;;;;;;;;;;4.36;59.43;99875.59;4486924;31;20032;-86
2022/02/03 01:14:08;;;;;;;;;;;;;;;4.51;59.43;99875.53;4486551;31;20476;-86
2022/02/03 01:21:35;;;;;;;;;;;;;;;4.60;59.44;99884.91;4500257;31;19991;-86
2022/02/03 01:34:50;;;;;;;;;;;;;;;4.56;59.43;99916.72;4499189;31;19991;-86
2022/02/03 01:43:12;;;;;;;;;;;;;;;4.53;59.44;99916.75;4498771;31;20053;-86
2022/02/03 01:45:21;;;;;;;;;;;;;;;4.67;59.44;99937.28;4500380;31;20029;-86
2022/02/03 01:48:18;;;;;;;;;;;;;;;4.53;59.43;99942.53;4485871;31;19988;-86
2022/02/03 01:53:24;;;;;;;;;;;;;;;4.50;59.44;99947.72;4498970;31;19991;-87
2022/02/03 01:55:53;;;;;;;;;;;;;;;4.30;59.42;99948.63;4498067;31;27719;-87
2022/02/03 01:58:29;;;;;;;;;;;;;;;4.39;59.42;99952.88;4498754;31;20004;-87
2022/02/03 02:00:59;;;;;;;;;;;;;;;4.46;59.42;99956.28;4499918;31;19979;-87
2022/02/03 02:03:26;;;;;;;;;;;;;;;4.41;59.42;99953.72;4487474;31;20031;-87
2022/02/03 02:06:11;;;;;;;;;;;;;;;4.35;59.43;99958.91;4500517;31;19976;-87
2022/02/03 02:08:57;;;;;;;;;;;;;;;4.42;59.43;99960.59;4476670;31;19992;-86
2022/02/03 02:11:33;;;;;;;;;;;;;;;4.27;59.42;99963.25;4501818;31;19971;-84
2022/02/03 02:38:42;;;;;;;;;;;;;;;3.89;59.39;99969.34;4500564;31;20016;-84
2022/02/03 02:43:50;;;;;;;;;;;;;;;3.53;59.38;99974.50;4501598;31;19991;-84
2022/02/03 02:46:23;;;;;;;;;;;;;;;3.62;59.38;99977.94;4501623;31;20066;-84
2022/02/03 02:48:48;;;;;;;;;;;;;;;3.68;59.38;99972.78;4487302;31;20493;-84
2022/02/03 02:51:19;;;;;;;;;;;;;;;3.76;59.39;99975.34;4501588;31;19977;-84
2022/02/03 03:37:31;;;;;;;;;;;;;;;3.69;59.38;100045.72;4500036;31;20003;-86
2022/02/03 03:39:59;;;;;;;;;;;;;;;3.66;59.38;100035.44;4501215;31;20354;-86
2022/02/03 03:42:32;;;;;;;;;;;;;;;3.68;59.38;100041.44;4486761;31;19993;-86
2022/02/03 03:44:58;;;;;;;;;;;;;;;3.64;59.38;100044.88;4486552;31;19993;-86
2022/02/03 03:47:24;;;;;;;;;;;;;;;3.53;59.38;100034.56;4499758;31;20032;-86
2022/02/03 03:49:49;;;;;;;;;;;;;;;3.61;59.38;100025.12;4501076;31;19972;-86
2022/02/03 03:52:22;;;;;;;;;;;;;;;3.56;59.37;100026.84;4499177;31;22499;-85
2022/02/03 03:55:06;;;;;;;;;;;;;;;3.57;59.37;100023.44;4499725;31;20006;-87
2022/02/03 04:00:59;;;;;;;;;;;;;;;3.43;59.37;100029.41;4474028;31;19981;-84
2022/02/03 04:56:48;;;;;;;;;;;;;;;3.57;59.38;100086.91;4516511;31;20067;-85
2022/02/03 04:59:27;;;;;;;;;;;;;;;3.63;59.38;100084.34;4507911;31;20052;-86
2022/02/03 05:07:14;;;;;;;;;;;;;;;3.33;59.36;100098.88;4501884;31;19994;-85
2022/02/03 05:35:09;;;;;;;;;;;;;;;3.41;59.37;100164.94;4498304;31;20081;-85
2022/02/03 05:46:14;;;;;;;;;;;;;;;3.83;59.40;100198.53;4498952;31;19999;-85
2022/02/03 05:49:43;;;;;;;;;;;;;;;3.78;59.39;100207.94;4500142;31;19987;-83
2022/02/03 06:15:21;;;;;;;;;;;;;;;3.57;59.38;100207.88;4499631;31;19980;-84
2022/02/03 06:23:29;;;;;;;;;;;;;;;3.24;59.36;100201.72;4498082;31;19995;-85
2022/02/03 06:28:46;;;;;;;;;;;;;;;3.37;59.36;100206.09;4499354;31;20021;-85
2022/02/03 06:31:11;;;;;;;;;;;;;;;3.42;59.37;100212.97;4498102;31;19983;-85
2022/02/03 06:33:37;;;;;;;;;;;;;;;3.46;59.38;100222.41;4508888;31;23757;-84
2022/02/03 06:36:02;;;;;;;;;;;;;;;3.53;59.38;100229.28;4514437;31;27446;-85
2022/02/03 06:38:28;;;;;;;;;;;;;;;3.79;59.39;100221.69;4500232;31;20014;-85
2022/02/03 06:40:53;;;;;;;;;;;;;;;3.71;59.39;100231.94;4499631;31;26806;-85
2022/02/03 06:43:18;;;;;;;;;;;;;;;3.67;59.38;100240.53;4499554;31;29577;-85
2022/02/03 06:45:48;;;;;;;;;;;;;;;3.60;59.37;100243.94;4500857;31;20309;-84
2022/02/03 06:48:17;;;;;;;;;;;;;;;3.69;59.38;100247.37;4502684;31;19996;-84
2022/02/03 06:50:51;;;;;;;;;;;;;;;3.76;59.38;100252.56;4517317;31;20059;-84
2022/02/03 06:53:21;;;;;;;;;;;;;;;3.85;59.40;100265.47;4503686;31;19984;-85
2022/02/03 07:00:42;;;;;;;;;;;;;;;4.06;59.41;100287.87;4517160;31;20015;-85
2022/02/03 07:03:15;;;;;;;;;;;;;;;4.13;59.41;100297.31;4489723;31;19975;-85
2022/02/03 07:05:40;;;;;;;;;;;;;;;4.23;59.42;100291.31;4517227;31;20031;-85
2022/02/03 07:08:11;;;;;;;;;;;;;;;4.43;59.43;100296.53;4516952;31;20308;-85
2022/02/03 07:10:36;;;;;;;;;;;;;;;4.36;59.42;100294.81;4477483;31;20003;-87
2022/02/03 07:13:01;;;;;;;;;;;;;;;4.32;59.41;100296.53;4505320;31;20000;-89
2022/02/03 07:15:27;;;;;;;;;;;;;;;4.29;59.42;100305.09;4502508;31;20006;-90
2022/02/03 07:17:59;;;;;;;;;;;;;;;4.38;59.42;100306.84;4490543;31;20854;-92
2022/02/03 07:23:36;;;;;;;;;;;;;;;4.38;59.42;100301.69;4498206;31;19968;-91
2022/02/03 07:26:25;;;;;;;;;;;;;;;4.38;59.43;100298.25;4489793;31;20006;-91
2022/02/03 07:29:05;;;;;;;;;;;;;;;4.45;59.42;100289.66;4503054;31;19988;-91
2022/02/03 07:31:38;;;;;;;;;;;;;;;4.48;59.43;100284.50;4504755;31;20695;-90
2022/02/03 07:34:09;;;;;;;;;;;;;;;4.54;59.43;100287.97;4488534;31;19952;-90
2022/02/03 07:36:46;;;;;;;;;;;;;;;4.36;59.43;100287.94;4488162;31;20072;-92
2022/02/03 07:39:20;;;;;;;;;;;;;;;4.16;59.41;100299.91;4500773;31;19992;-91
2022/02/03 07:41:45;;;;;;;;;;;;;;;4.15;59.41;100299.03;4501232;31;19987;-88
2022/02/03 07:44:14;;;;;;;;;;;;;;;4.26;59.41;100309.41;4486707;31;20291;-85
2022/02/03 07:46:39;;;;;;;;;;;;;;;4.00;59.40;100312.72;4500733;31;20009;-89
2022/02/03 07:49:04;;;;;;;;;;;;;;;4.35;59.42;100309.41;4499624;31;20340;-89
2022/02/03 07:51:30;;;;;;;;;;;;;;;4.48;59.43;100318.87;4486608;31;19980;-87
2022/02/03 07:53:55;;;;;;;;;;;;;;;4.44;59.42;100324.87;4500428;31;25931;-89
2022/02/03 07:56:21;;;;;;;;;;;;;;;4.40;59.42;100328.31;4486623;31;20365;-87
2022/02/03 07:58:46;;;;;;;;;;;;;;;4.48;59.42;100346.38;4498811;31;19976;-89
2022/02/03 08:01:11;;;;;;;;;;;;;;;4.50;59.42;100349.84;4499818;31;19998;-90
2022/02/03 08:03:41;;;;;;;;;;;;;;;4.63;59.43;100342.09;4486206;31;19992;-90
2022/02/03 08:06:09;;;;;;;;;;;;;;;4.79;59.45;100337.84;4499795;31;19990;-87
2022/02/03 08:08:43;;;;;;;;;;;;;;;4.82;59.45;100334.41;4498855;31;19992;-88
2022/02/03 08:11:13;;;;;;;;;;;;;;;4.99;59.46;100335.28;4499223;31;20454;-88
2022/02/03 08:13:51;;;;;;;;;;;;;;;4.82;59.45;100337.84;4499265;31;19994;-89
2022/02/03 08:16:24;;;;;;;;;;;;;;;5.12;59.46;100351.59;4500666;31;20309;-89
2022/02/03 08:18:56;;;;;;;;;;;;;;;5.24;59.46;100354.19;4500279;31;19984;-89
2022/02/03 08:21:22;;;;;;;;;;;;;;;5.29;59.47;100359.34;4499372;31;20002;-87
2022/02/03 08:31:49;;;;;;;;;;;;;;;5.54;59.49;100359.31;4499388;31;19999;-85
2022/02/03 08:34:21;;;;;;;;;;;;;;;5.70;59.50;100352.37;4499241;31;19983;-89
2022/02/03 08:36:46;;;;;;;;;;;;;;;5.59;59.49;100343.78;4499194;31;19980;-89
2022/02/03 08:39:17;;;;;;;;;;;;;;;5.52;59.48;100336.94;4485903;31;20030;-86
2022/02/03 08:41:43;;;;;;;;;;;;;;;5.47;59.48;100339.53;4499129;31;20033;-87
2022/02/03 08:44:08;;;;;;;;;;;;;;;5.44;59.48;100342.13;4498561;31;20821;-84
2022/02/03 08:46:33;;;;;;;;;;;;;;;5.50;59.49;100334.34;4499906;31;20033;-86
2022/02/03 08:49:01;;;;;;;;;;;;;;;5.61;59.49;100341.19;4498367;31;24197;-87
2022/02/03 08:51:26;;;;;;;;;;;;;;;5.73;59.50;100346.34;4499101;31;19987;-90
2022/02/03 08:53:55;;;;;;;;;;;;;;;5.79;59.50;100352.34;4485853;31;20024;-86
2022/02/03 09:50:19;;;;;;;;;;;;;;;6.85;59.56;100386.31;4499826;31;19993;-84
2022/02/03 09:56:31;;;;;;;;;;;;;;;6.71;59.55;100394.19;4476649;31;19980;-90
2022/02/03 09:59:16;;;;;;;;;;;;;;;6.93;59.56;100387.16;4498750;31;19976;-86
2022/02/03 10:01:49;;;;;;;;;;;;;;;6.78;59.55;100379.47;4499862;31;19969;-92
2022/02/03 10:04:20;;;;;;;;;;;;;;;6.69;59.55;100390.75;4486894;31;19988;-92
2022/02/03 10:06:57;;;;;;;;;;;;;;;7.14;59.58;100378.38;4500602;31;20019;-94
2022/02/03 10:09:39;;;;;;;;;;;;;;;7.24;59.58;100384.31;4499162;31;19968;-88
2022/02/03 10:12:04;;;;;;;;;;;;;;;7.34;59.59;100367.84;4485171;31;19976;-92
2022/02/03 10:14:30;;;;;;;;;;;;;;;7.37;59.58;100367.81;4485184;31;19996;-90
2022/02/03 10:16:56;;;;;;;;;;;;;;;7.31;59.58;100365.25;4497898;31;20006;-88
2022/02/03 10:19:25;;;;;;;;;;;;;;;7.33;59.59;100363.50;4498278;31;19976;-93
2022/02/03 10:21:51;;;;;;;;;;;;;;;7.47;59.60;100364.25;4485900;31;19980;-87
2022/02/03 10:24:18;;;;;;;;;;;;;;;7.50;59.60;100365.97;4499223;31;20025;-85
2022/02/03 10:26:46;;;;;;;;;;;;;;;7.56;59.60;100363.28;4500219;31;20044;-87
2022/02/03 10:29:13;;;;;;;;;;;;;;;7.56;59.60;100365.87;4499874;31;19980;-87
2022/02/03 10:31:39;;;;;;;;;;;;;;;7.62;59.61;100374.47;4486389;31;20845;-89
2022/02/03 10:34:08;;;;;;;;;;;;;;;7.70;59.61;100367.47;4484473;32;19988;-91
2022/02/03 10:36:43;;;;;;;;;;;;;;;7.45;59.59;100370.31;4484409;32;20144;-86
2022/02/03 10:39:39;;;;;;;;;;;;;;;7.38;59.58;100365.22;4484325;32;19972;-89
2022/02/03 10:42:14;;;;;;;;;;;;;;;7.54;59.60;100352.09;4484326;32;20332;-86
2022/02/03 10:47:38;;;;;;;;;;;;;;;7.72;59.61;100351.91;4485529;32;19999;-89
2022/02/03 10:57:49;;;;;;;;;;;;;;;8.08;59.63;100361.00;4485161;31;20004;-90
2022/02/03 11:05:54;;;;;;;;;;;;;;;8.72;59.67;100354.12;4483840;32;20352;-88
2022/02/03 11:10:51;;;;;;;;;;;;;;;9.12;59.69;100343.97;4484563;32;19992;-93
2022/02/03 11:13:16;;;;;;;;;;;;;;;9.14;59.69;100348.25;4472194;32;19989;-88
2022/02/03 11:15:42;;;;;;;;;;;;;;;9.21;59.69;100341.22;4483963;32;20009;-88
2022/02/03 11:18:08;;;;;;;;;;;;;;;9.23;59.70;100340.34;4470543;32;20007;-88
2022/02/03 11:20:36;;;;;;;;;;;;;;;9.18;59.68;100330.88;4470679;32;20020;-88
2022/02/03 11:50:37;;;;;;;;;;;;;;;8.48;59.65;100327.66;4500239;31;20006;-90
2022/02/03 12:20:27;;;;;;;;;;;;;;;8.61;59.66;100320.56;4498973;31;20357;-86
2022/02/03 12:25:47;;;;;;;;;;;;;;;8.70;59.66;100332.53;4499053;31;20357;-83
2022/02/03 12:38:51;;;;;;;;;;;;;;;8.42;59.65;100325.16;4504224;31;20028;-88
2022/02/03 12:41:22;;;;;;;;;;;;;;;8.26;59.64;100333.97;4501407;31;19976;-88
2022/02/03 12:43:58;;;;;;;;;;;;;;;8.21;59.64;100326.25;4501099;31;20102;-87
2022/02/03 12:46:23;;;;;;;;;;;;;;;8.15;59.64;100334.12;4502420;31;20391;-84
2022/02/03 12:48:53;;;;;;;;;;;;;;;8.28;59.64;100330.50;4516414;31;19988;-85
2022/02/03 12:51:20;;;;;;;;;;;;;;;8.36;59.64;100324.38;4501612;31;19992;-89
2022/02/03 12:53:46;;;;;;;;;;;;;;;8.25;59.64;100327.94;4501980;31;19987;-87
2022/02/03 12:56:11;;;;;;;;;;;;;;;8.40;59.65;100320.88;4512680;31;19994;-86
2022/02/03 12:58:42;;;;;;;;;;;;;;;8.39;59.65;100334.72;4515900;31;19979;-86
2022/02/03 13:01:12;;;;;;;;;;;;;;;8.25;59.64;100332.25;4515863;31;20021;-85
2022/02/03 13:03:40;;;;;;;;;;;;;;;8.24;59.64;100339.19;4488627;31;20005;-88
2022/02/03 13:06:09;;;;;;;;;;;;;;;8.37;59.65;100342.50;4501756;31;20051;-87
2022/02/03 13:08:38;;;;;;;;;;;;;;;8.56;59.66;100340.53;4501661;31;20063;-84
2022/02/03 13:11:06;;;;;;;;;;;;;;;8.46;59.66;100334.59;4515993;31;20008;-84
2022/02/03 13:14:22;;;;;;;;;;;;;;;8.48;59.65;100329.38;4516046;31;20021;-84
2022/02/03 13:16:19;;;;;;;;;;;;;;;8.50;59.65;100319.84;4501716;31;19980;-83
2022/02/03 13:18:52;;;;;;;;;;;;;;;8.48;59.65;100319.88;4515718;31;23072;-84
2022/02/03 13:24:06;;;;;;;;;;;;;;;8.74;59.67;100316.88;4498835;31;20413;-84
2022/02/03 13:26:35;;;;;;;;;;;;;;;8.71;59.67;100321.25;4501600;31;20021;-85
2022/02/03 13:29:05;;;;;;;;;;;;;;;8.72;59.67;100316.03;4501726;31;19990;-84
2022/02/03 13:31:43;;;;;;;;;;;;;;;8.79;59.67;100319.44;4515728;31;20043;-86
2022/02/03 13:34:17;;;;;;;;;;;;;;;8.77;59.67;100322.03;4515569;31;19988;-87
2022/02/03 13:36:52;;;;;;;;;;;;;;;9.01;59.68;100323.41;4499818;31;19976;-86
2022/02/03 13:39:28;;;;;;;;;;;;;;;8.99;59.68;100316.47;4515554;31;19975;-86
2022/02/03 13:42:00;;;;;;;;;;;;;;;9.20;59.70;100316.13;4515748;31;20040;-85
2022/02/03 13:44:27;;;;;;;;;;;;;;;9.32;59.69;100313.31;4487323;31;20093;-86
2022/02/03 13:46:52;;;;;;;;;;;;;;;8.88;59.67;100304.53;4501145;31;19979;-86
2022/02/03 13:49:19;;;;;;;;;;;;;;;8.98;59.69;100302.66;4488084;31;19975;-85
2022/02/03 13:51:47;;;;;;;;;;;;;;;8.88;59.67;100308.88;4515879;31;19984;-85
2022/02/03 13:54:52;;;;;;;;;;;;;;;8.91;59.68;100314.87;4515537;31;20386;-86
2022/02/03 14:22:41;;;;;;;;;;;;;;;8.74;59.67;100314.28;4502687;31;20063;-86
2022/02/03 14:27:51;;;;;;;;;;;;;;;8.79;59.67;100316.84;4503160;31;20092;-84
2022/02/03 14:30:18;;;;;;;;;;;;;;;8.82;59.68;100314.19;4515253;31;20046;-89
2022/02/03 14:32:44;;;;;;;;;;;;;;;8.87;59.67;100309.75;4484788;31;20312;-88
2022/02/03 14:35:11;;;;;;;;;;;;;;;8.70;59.67;100310.03;4497785;31;19992;-89
2022/02/03 14:42:36;;;;;;;;;;;;;;;8.78;59.67;100308.19;4497300;31;20032;-88
2022/02/03 14:45:02;;;;;;;;;;;;;;;8.66;59.67;100313.56;4497304;31;20006;-87
2022/02/03 14:47:29;;;;;;;;;;;;;;;8.63;59.66;100308.41;4497535;31;19984;-87
2022/02/03 14:49:55;;;;;;;;;;;;;;;8.66;59.67;100316.16;4493126;31;19980;-89
2022/02/03 14:52:30;;;;;;;;;;;;;;;8.80;59.67;100302.97;4482554;32;20022;-92
2022/02/03 15:00:26;;;;;;;;;;;;;;;8.64;59.66;100323.09;4481908;32;20003;-86
2022/02/03 15:02:52;;;;;;;;;;;;;;;8.78;59.67;100309.94;4482665;31;19992;-86
2022/02/03 15:05:33;;;;;;;;;;;;;;;8.75;59.68;100312.53;4481996;32;19996;-89
2022/02/03 15:08:21;;;;;;;;;;;;;;;8.63;59.66;100304.97;4483158;32;20042;-93
2022/02/03 15:11:02;;;;;;;;;;;;;;;8.62;59.66;100304.09;4486311;31;20388;-86
2022/02/03 15:13:45;;;;;;;;;;;;;;;8.45;59.66;100317.31;4486456;31;20032;-93
2022/02/03 15:25:17;;;;;;;;;;;;;;;8.52;59.67;100321.56;4487345;32;19983;-92
2022/02/03 15:27:42;;;;;;;;;;;;;;;8.50;59.66;100312.06;4484358;32;20005;-89
2022/02/03 15:30:08;;;;;;;;;;;;;;;8.56;59.66;100309.41;4483650;32;20011;-82
2022/02/03 15:32:42;;;;;;;;;;;;;;;8.53;59.66;100305.09;4487992;31;19972;-82
2022/02/03 15:35:10;;;;;;;;;;;;;;;8.25;59.65;100296.81;4485699;31;20660;-82
2022/02/03 15:37:35;;;;;;;;;;;;;;;8.22;59.64;100291.66;4500787;31;20381;-82
2022/02/03 15:40:04;;;;;;;;;;;;;;;7.93;59.63;100301.56;4500644;31;20528;-82
2022/02/03 15:42:36;;;;;;;;;;;;;;;7.92;59.63;100305.91;4486397;31;19987;-82
2022/02/03 15:45:03;;;;;;;;;;;;;;;7.98;59.62;100300.63;4486629;31;19995;-83
2022/02/03 15:47:35;;;;;;;;;;;;;;;8.00;59.64;100310.97;4486336;31;19988;-83
2022/02/03 16:01:13;;;;;;;;;;;;;;;7.62;59.61;100301.94;4487991;31;20041;-82
2022/02/03 16:03:40;;;;;;;;;;;;;;;7.61;59.61;100300.22;4499779;31;19980;-81
2022/02/03 16:17:05;;;;;;;;;;;;;;;6.64;59.56;100309.75;4500422;31;20051;-82
2022/02/03 16:19:37;;;;;;;;;;;;;;;6.72;59.55;100317.44;4487721;31;20035;-83
2022/02/03 16:22:13;;;;;;;;;;;;;;;6.63;59.54;100305.44;4499271;31;19980;-83
2022/02/03 16:54:07;;;;;;;;;;;;;;;5.72;59.50;100295.56;4483149;32;20340;-83
2022/02/03 16:56:32;;;;;;;;;;;;;;;5.64;59.50;100302.44;4484222;31;20023;-83
2022/02/03 16:58:59;;;;;;;;;;;;;;;5.57;59.49;100299.03;4480471;32;20025;-83
2022/02/03 17:01:26;;;;;;;;;;;;;;;5.48;59.48;100296.50;4484742;31;20034;-83
2022/02/03 17:03:51;;;;;;;;;;;;;;;5.45;59.48;100293.91;4484626;31;19988;-84
2022/02/03 17:06:17;;;;;;;;;;;;;;;5.36;59.48;100292.19;4482441;32;33079;-83
2022/02/03 17:08:42;;;;;;;;;;;;;;;5.20;59.47;100290.50;4468480;32;20012;-80
2022/02/03 17:11:07;;;;;;;;;;;;;;;5.22;59.47;100288.81;4482951;32;20518;-81
2022/02/03 17:13:32;;;;;;;;;;;;;;;5.15;59.46;100298.25;4482383;32;22920;-81
2022/02/03 17:15:58;;;;;;;;;;;;;;;5.10;59.47;100288.81;4484115;31;19973;-80
2022/02/03 17:18:23;;;;;;;;;;;;;;;5.12;59.47;100294.81;4483075;32;20335;-81
2022/02/03 17:20:48;;;;;;;;;;;;;;;5.08;59.46;100293.97;4484611;31;20021;-80
2022/02/03 17:23:18;;;;;;;;;;;;;;;5.10;59.47;100287.09;4485348;31;20403;-81
2022/02/03 17:25:50;;;;;;;;;;;;;;;5.07;59.46;100291.41;4485868;31;20632;-80
2022/02/03 17:28:24;;;;;;;;;;;;;;;5.01;59.46;100291.41;4484214;32;20365;-81
2022/02/03 17:31:06;;;;;;;;;;;;;;;4.96;59.46;100290.53;4483166;31;20322;-81
2022/02/03 18:19:56;;;;;;;;;;;;;;;3.94;59.40;100284.37;4482243;32;20381;-81
2022/02/03 18:36:10;;;;;;;;;;;;;;;3.88;59.39;100247.47;4514692;31;19984;-81
2022/02/03 18:54:34;;;;;;;;;;;;;;;3.91;59.40;100226.84;4501541;31;19968;-81
2022/02/03 19:02:31;;;;;;;;;;;;;;;3.72;59.39;100218.22;4517000;31;20335;-81
2022/02/03 20:11:38;;;;;;;;;;;;;;;3.99;59.40;100231.16;4516477;31;19987;-81
2022/02/03 20:14:11;;;;;;;;;;;;;;;4.06;59.41;100228.62;4488760;31;20072;-81
2022/02/03 20:16:37;;;;;;;;;;;;;;;4.07;59.40;100215.75;4516413;31;20365;-80
2022/02/03 20:19:02;;;;;;;;;;;;;;;3.98;59.41;100221.72;4516320;31;19976;-81
2022/02/03 20:21:31;;;;;;;;;;;;;;;4.03;59.40;100216.59;4501293;31;20056;-81
2022/02/03 20:23:56;;;;;;;;;;;;;;;4.06;59.40;100211.44;4516160;31;19971;-82
2022/02/03 20:26:21;;;;;;;;;;;;;;;4.12;59.40;100214.03;4516068;31;20355;-82
2022/02/03 20:28:47;;;;;;;;;;;;;;;4.09;59.40;100213.16;4501089;31;31142;-81
2022/02/03 20:31:12;;;;;;;;;;;;;;;4.13;59.41;100207.16;4516176;31;20307;-82
2022/02/03 20:33:37;;;;;;;;;;;;;;;4.21;59.41;100211.44;4516072;31;19968;-81
2022/02/03 20:36:03;;;;;;;;;;;;;;;4.30;59.42;100195.16;4515785;31;31960;-82
2022/02/03 20:38:28;;;;;;;;;;;;;;;4.22;59.41;100179.66;4516338;31;19968;-81
2022/02/03 20:40:53;;;;;;;;;;;;;;;3.99;59.40;100187.38;4501708;31;20003;-82
2022/02/03 20:43:18;;;;;;;;;;;;;;;4.03;59.40;100189.97;4501249;31;20258;-82
2022/02/03 20:45:43;;;;;;;;;;;;;;;4.00;59.40;100183.09;4516047;31;20007;-81
2022/02/03 20:48:09;;;;;;;;;;;;;;;3.99;59.40;100182.22;4515541;31;20020;-80
2022/02/03 20:50:38;;;;;;;;;;;;;;;3.97;59.39;100177.94;4500885;31;26903;-80
2022/02/03 20:53:03;;;;;;;;;;;;;;;3.98;59.40;100185.66;4515910;31;20024;-81
2022/02/03 20:55:28;;;;;;;;;;;;;;;3.94;59.39;100183.94;4515633;31;19976;-82
2022/02/03 20:57:54;;;;;;;;;;;;;;;4.11;59.40;100183.13;4515445;31;31052;-81
2022/02/03 21:00:23;;;;;;;;;;;;;;;4.17;59.41;100175.38;4501583;31;20010;-82
2022/02/03 21:05:40;;;;;;;;;;;;;;;4.04;59.40;100181.41;4502949;31;19983;-82
2022/02/03 21:08:05;;;;;;;;;;;;;;;3.96;59.40;100173.63;4501599;31;19975;-82
2022/02/03 21:10:31;;;;;;;;;;;;;;;4.00;59.40;100165.06;4515565;31;21509;-82
2022/02/03 21:12:56;;;;;;;;;;;;;;;4.01;59.40;100165.06;4515833;31;20080;-81
2022/02/03 21:15:55;;;;;;;;;;;;;;;4.11;59.40;100165.94;4516060;31;20718;-81
2022/02/03 21:18:16;;;;;;;;;;;;;;;3.98;59.39;100169.34;4501456;31;19991;-82
2022/02/03 21:20:41;;;;;;;;;;;;;;;3.92;59.40;100164.19;4501694;31;19992;-82
2022/02/03 21:23:09;;;;;;;;;;;;;;;3.94;59.39;100168.47;4515252;31;29224;-82
2022/02/03 21:25:43;;;;;;;;;;;;;;;3.94;59.40;100171.06;4501337;31;19972;-81
2022/02/03 21:28:12;;;;;;;;;;;;;;;3.90;59.39;100173.63;4502786;31;19971;-80
2022/02/03 21:30:38;;;;;;;;;;;;;;;4.08;59.41;100170.22;4461084;31;1281202;-82
2022/02/03 21:33:08;;;;;;;;;;;;;;;3.92;59.40;100164.19;4498340;31;19992;-81
2022/02/03 21:35:33;;;;;;;;;;;;;;;3.96;59.39;100164.19;4500093;31;19979;-82
2022/02/03 21:37:59;;;;;;;;;;;;;;;3.83;59.40;100159.03;4500157;31;20385;-82
2022/02/03 21:40:24;;;;;;;;;;;;;;;3.79;59.39;100154.75;4498916;31;20027;-82
2022/02/03 21:42:50;;;;;;;;;;;;;;;3.86;59.40;100159.03;4499131;31;26679;-81
2022/02/03 21:45:17;;;;;;;;;;;;;;;3.80;59.39;100157.31;4498187;31;20315;-82
2022/02/03 21:47:43;;;;;;;;;;;;;;;3.81;59.38;100151.31;4499795;31;19973;-81
2022/02/03 21:50:08;;;;;;;;;;;;;;;3.85;59.40;100147.88;4498147;31;23183;-83
2022/02/03 21:52:37;;;;;;;;;;;;;;;3.87;59.39;100153.03;4498452;31;20275;-82
2022/02/03 21:55:03;;;;;;;;;;;;;;;4.13;59.41;100151.34;4499836;31;20359;-82
2022/02/03 21:57:28;;;;;;;;;;;;;;;4.14;59.41;100147.91;4499918;31;19964;-82
2022/02/03 21:59:55;;;;;;;;;;;;;;;4.13;59.41;100147.91;4499589;31;20052;-81
2022/02/03 22:02:20;;;;;;;;;;;;;;;4.14;59.41;100132.44;4499657;31;19972;-82
2022/02/03 22:04:46;;;;;;;;;;;;;;;4.10;59.40;100135.87;4499652;31;19989;-82
2022/02/03 22:07:12;;;;;;;;;;;;;;;4.11;59.40;100134.16;4499701;31;19986;-81
2022/02/03 22:09:39;;;;;;;;;;;;;;;4.19;59.40;100129.88;4498868;31;30892;-82
2022/02/03 22:12:05;;;;;;;;;;;;;;;4.34;59.41;100122.13;4499676;31;20298;-82
2022/02/03 22:14:30;;;;;;;;;;;;;;;4.30;59.42;100126.44;4498109;31;19984;-82
2022/02/03 22:16:58;;;;;;;;;;;;;;;4.33;59.42;100120.41;4499989;31;19964;-82
2022/02/03 22:19:24;;;;;;;;;;;;;;;4.42;59.43;100120.41;4501539;31;19984;-82
2022/02/03 22:22:06;;;;;;;;;;;;;;;4.26;59.41;100124.72;4501513;31;19998;-82
2022/02/03 22:24:41;;;;;;;;;;;;;;;4.25;59.41;100112.66;4501444;31;20682;-82
2022/02/03 22:42:51;;;;;;;;;;;;;;;4.77;59.44;100093.69;4501133;31;20043;-82
2022/02/03 22:45:23;;;;;;;;;;;;;;;4.83;59.45;100089.38;4501395;31;19976;-81
2022/02/03 22:48:23;;;;;;;;;;;;;;;5.06;59.46;100097.03;4494872;31;19991;-82
2022/02/03 22:50:49;;;;;;;;;;;;;;;5.12;59.47;100089.25;4500222;31;20265;-82
2022/02/03 22:53:14;;;;;;;;;;;;;;;4.97;59.46;100084.19;4500564;31;25189;-83
2022/02/03 22:55:39;;;;;;;;;;;;;;;5.09;59.47;100083.25;4500951;31;20010;-81
2022/02/03 22:58:34;;;;;;;;;;;;;;;5.06;59.46;100078.97;4499279;31;20376;-81
2022/02/03 23:01:00;;;;;;;;;;;;;;;5.09;59.47;100080.66;4500504;31;20376;-81
2022/02/03 23:03:26;;;;;;;;;;;;;;;5.11;59.46;100084.97;4500469;31;20060;-81
2022/02/03 23:05:51;;;;;;;;;;;;;;;5.10;59.47;100075.50;4499270;31;21033;-82
2022/02/03 23:08:21;;;;;;;;;;;;;;;5.11;59.47;100086.69;4500259;31;33776;-83
2022/02/03 23:16:17;;;;;;;;;;;;;;;5.23;59.46;100066.00;4500838;31;20376;-83
2022/02/03 23:22:09;;;;;;;;;;;;;;;5.28;59.47;100078.88;4501185;31;20644;-83
2022/02/03 23:23:59;;;;;;;;;;;;;;;5.39;59.49;100061.59;4494218;31;19987;-83
2022/02/03 23:26:26;;;;;;;;;;;;;;;5.47;59.49;100059.81;4498938;31;22668;-83
2022/02/03 23:28:57;;;;;;;;;;;;;;;5.31;59.47;100065.94;4500180;31;20317;-83
2022/02/03 23:31:23;;;;;;;;;;;;;;;5.36;59.48;100057.28;4499644;31;20004;-83
2022/02/03 23:33:50;;;;;;;;;;;;;;;5.39;59.49;100049.53;4509934;31;19991;-83
2022/02/03 23:36:15;;;;;;;;;;;;;;;5.36;59.48;100049.56;4502373;31;19994;-81
2022/02/03 23:38:52;;;;;;;;;;;;;;;5.69;59.50;100042.47;4517089;31;20002;-82
2022/02/03 23:41:56;;;;;;;;;;;;;;;5.55;59.49;100052.88;4501824;31;20051;-83
